WetterOnline ( https://www.wetteronline.de )

Wetter aktuell Straßberg

Aktuelles Wetter: Messstetten (900m)

6-stündlich | Neueste Meldungen
Ortszeit Temperatur Wetter
Di, 12.11. 1:00 1.1° C Sprühregen
Mo, 11.11. 19:00 -0.0° C bedeckt
Mo, 11.11. 13:00 -1.2° C bedeckt
Mo, 11.11. 7:00 -6.2° C wolkenlos
Mo, 11.11. 1:00 -7.6° C Nebel
So, 10.11. 19:00 -4.8° C Nebel
So, 10.11. 13:00 3.3° C wolkenlos
So, 10.11. 7:00 -3.2° C wolkenlos
Ortszeit Temperatur Wetter
Di, 12.11. 1:30 1.1° C Sprühregen
Di, 12.11. 1:20 1.1° C Sprühregen
Di, 12.11. 1:10 1.1° C Schneeregen
Di, 12.11. 1:00 1.1° C Sprühregen
Di, 12.11. 0:40 1.2° C Sprühregen
Di, 12.11. 0:30 1.1° C bedeckt
Di, 12.11. 0:00 0.8° C Regen
Mo, 11.11. 23:30 0.7° C leichter Schneefall
Mo, 11.11. 23:00 0.8° C leichter Schneefall
Mo, 11.11. 22:30 0.7° C leichter Schneefall
Ortszeit Relative Feuchte Sichtweite
Di, 12.11. 1:00 94% 21 km
Mo, 11.11. 19:00 95% 10 km
Mo, 11.11. 13:00 96% 4.0 km
Mo, 11.11. 7:00 93% 16 km
Mo, 11.11. 1:00 95% 0.6 km
So, 10.11. 19:00 97% 0.3 km
So, 10.11. 13:00 71% 35 km
So, 10.11. 7:00 98% 7 km
Ortszeit Relative Feuchte Sichtweite
Di, 12.11. 1:30 94% 12 km
Di, 12.11. 1:20 94% -
Di, 12.11. 1:10 94% -
Di, 12.11. 1:00 94% 21 km
Di, 12.11. 0:40 94% -
Di, 12.11. 0:30 93% 27 km
Di, 12.11. 0:00 95% 18 km
Mo, 11.11. 23:30 96% 9 km
Mo, 11.11. 23:00 94% 12 km
Mo, 11.11. 22:30 93% 6 km
Ortszeit Niederschlagsmenge Niederschlagsart
Di, 12.11. 1:00 0.4 l/m2 in 6 Std. Schnee, Regen
Mo, 11.11. 19:00 0.1 l/m2 in 12 Std. Schnee
Mo, 11.11. 13:00 0.1 l/m2 in 6 Std. -
Mo, 11.11. 7:00 0.0 l/m2 in 12 Std. -
Mo, 11.11. 1:00 0.0 l/m2 in 6 Std. -
So, 10.11. 19:00 0.0 l/m2 in 12 Std. -
So, 10.11. 13:00 0.0 l/m2 in 6 Std. -
So, 10.11. 7:00 0.0 l/m2 in 12 Std. -
Ortszeit Niederschlagsmenge Niederschlagsart
Di, 12.11. 1:30 0.1 l/m2 in 1 Std. -
Di, 12.11. 1:20 keine Meldung -
Di, 12.11. 1:10 keine Meldung -
Di, 12.11. 1:00 0.1 l/m2 in 1 Std. Schnee, Regen
Di, 12.11. 0:40 keine Meldung -
Di, 12.11. 0:30 0.0 l/m2 in 1 Std. -
Di, 12.11. 0:00 0.2 l/m2 in 1 Std. Schnee, Sprühregen
Mo, 11.11. 23:30 0.1 l/m2 in 1 Std. -
Mo, 11.11. 23:00 0.2 l/m2 in 1 Std. Schnee
Mo, 11.11. 22:30 0.1 l/m2 in 1 Std. -
Ortszeit Stärke Spitze Richtung
km/h Bft. km/h Grad Sektor
Di, 12.11. 1:00 9 2 24 270° W
Mo, 11.11. 19:00 6 1 19 230° SW
Mo, 11.11. 13:00 11 2 22 180° S
Mo, 11.11. 7:00 4 1 11 90° O
Mo, 11.11. 1:00 0 0 7 - -
So, 10.11. 19:00 0 0 14 - -
So, 10.11. 13:00 0 0 11 - -
So, 10.11. 7:00 7 2 14 90° O
Ortszeit Stärke Spitze Richtung
km/h Bft. km/h Grad Sektor
Di, 12.11. 1:30 7 2 14 230° SW
Di, 12.11. 1:20 7 2 - 230° SW
Di, 12.11. 1:10 7 2 - 250° W
Di, 12.11. 1:00 9 2 19 270° W
Di, 12.11. 0:40 11 2 - 260° W
Di, 12.11. 0:30 9 2 17 260° W
Di, 12.11. 0:00 7 2 18 240° SW
Mo, 11.11. 23:30 9 2 17 220° SW
Mo, 11.11. 23:00 11 2 25 230° SW
Mo, 11.11. 22:30 11 2 25 220° SW
Ortszeit Untergrenze Bedeckung Gattung
total tief tief mittel hoch
Di, 12.11. 1:00 270 m 8/8 8/8 - - -
Mo, 11.11. 19:00 90 m 8/8 8/8 - - -
Mo, 11.11. 13:00 60 m 8/8 8/8 - - -
Mo, 11.11. 7:00 - 0/8 0/8 - - -
Mo, 11.11. 1:00 - 0/8 0/8 - - -
So, 10.11. 19:00 6900 m 8/8 8/8 - - -
So, 10.11. 13:00 - 0/8 0/8 - - -
So, 10.11. 7:00 - 0/8 0/8 - - -
Ortszeit Bedeckungsgrad in Achtel und Wolkenuntergrenze
Di, 12.11. 1:30 1(90m) 7(210m) 8(300m)
Di, 12.11. 1:20 1(90m) 7(210m) 8(300m)
Di, 12.11. 1:10 1(90m) 7(240m) 7(360m)
Di, 12.11. 1:00 7(270m) 8(1140m) 8(2400m)
Di, 12.11. 0:40 6(300m) 8(1110m) 8(2400m)
Di, 12.11. 0:30 5(300m) 7(810m) 8(2100m)
Di, 12.11. 0:00 5(240m) 8(360m) 8(2400m)
Mo, 11.11. 23:30 6(210m) 7(330m) 7(570m)
Mo, 11.11. 23:00 2(210m) 4(1140m) 7(1500m)
Mo, 11.11. 22:30 3(60m) 7(720m) 8(1140m)
Ortszeit Stationsdruck (hPa) Tendenz (hPa in 3 Std.)
Di, 12.11. 1:00 904 + 0,6
Mo, 11.11. 19:00 904 + 0,3
Mo, 11.11. 13:00 904 - 2,4
Mo, 11.11. 7:00 908 - 0,6
Mo, 11.11. 1:00 910 - 0,3
So, 10.11. 19:00 910 + 1,6
So, 10.11. 13:00 907 + 0,8
So, 10.11. 7:00 904 + 0,6
Ortszeit Stationsdruck (hPa) Tendenz (hPa in 3 Std.)
Di, 12.11. 1:30 904 + 0,7
Di, 12.11. 1:20 904 keine Meldung
Di, 12.11. 1:10 904 keine Meldung
Di, 12.11. 1:00 904 + 0,6
Di, 12.11. 0:40 904 keine Meldung
Di, 12.11. 0:30 904 + 0,7
Di, 12.11. 0:00 904 + 0,7
Mo, 11.11. 23:30 904 + 0,5
Mo, 11.11. 23:00 903 + 0,4
Mo, 11.11. 22:30 903 - 0,2
Ortszeit Schneehöhe (cm)
Di, 12.11. 1:00 0
Mo, 11.11. 19:00 0
Mo, 11.11. 13:00 0
Mo, 11.11. 7:00 0
Mo, 11.11. 1:00 0
So, 10.11. 19:00 0
So, 10.11. 13:00 0
So, 10.11. 7:00 1
Ortszeit Schneehöhe (cm)
Di, 12.11. 1:30 0
Di, 12.11. 1:20 0
Di, 12.11. 1:10 0
Di, 12.11. 1:00 0
Di, 12.11. 0:40 0
Di, 12.11. 0:30 0
Di, 12.11. 0:00 0
Mo, 11.11. 23:30 0
Mo, 11.11. 23:00 0
Mo, 11.11. 22:30 0
Link zu dieser Seite / Seite empfehlen

Das Wetter in ...